Aviation Digital Data Service (ADDS)

Output produced by METARs form (1300 UTC 21 February 2018)
found at http://www.aviationweather.gov/adds/metars/
 
RPLC 211300Z 15008KT 9999 SCT020 BKN300 28/22 Q1012 NOSIG RMK A2988
TAF RPLC 201100Z 2012/2118 09006KT 9999 FEW020 BKN300 TX34/2106Z TN24/2021Z 
     TEMPO 2012/2018 02008KT SCT020 BKN300
       
RPMD 211300Z 30003KT 9999 SCT016 27/22 Q1010 RMK A2983
RPVM 211300Z 06006KT 9999 FEW020 28/25 Q1011 NOSIG RMK A2985
TAF COR RPVM 201100Z 2012/2118 05008KT 9999 FEW020 SCT090 
     TEMPO 2012/2018 07010KT 9000 -SHRA FEW018CB FEW020 OVC090 
     TEMPO 2018/2024 04006KT FEW020 BKN090
       
RPLB 211300Z 02004KT 9999 FEW020 BKN080 28/23 Q1010 NOSIG RMK A2983
RPLC 211300Z 15008KT 9999 SCT020 BKN300 28/22 Q1012 NOSIG RMK A2988
TAF RPLC 201100Z 2012/2118 09006KT 9999 FEW020 BKN300 TX34/2106Z TN24/2021Z 
     TEMPO 2012/2018 02008KT SCT020 BKN300
       
RPLL 211300Z 06006KT 300V080 9999 FEW025 SCT100 28/25 Q1011 NOSIG RMK A2985
TAF COR RPLL 201100Z 2012/2118 06008KT 9999 FEW025 SCT100 TX32/2106Z TN25/2021Z 
     TEMPO 2012/2018 04010KT SCT023 BKN100 
     TEMPO 2018/2024 06004KT FEW025 BKN100
       
RPMD 211300Z 30003KT 9999 SCT016 27/22 Q1010 RMK A2983
RPVM 211300Z 06006KT 9999 FEW020 28/25 Q1011 NOSIG RMK A2985
TAF COR RPVM 201100Z 2012/2118 05008KT 9999 FEW020 SCT090 
     TEMPO 2012/2018 07010KT 9000 -SHRA FEW018CB FEW020 OVC090 
     TEMPO 2018/2024 04006KT FEW020 BKN090
       
RPLL 211300Z 06006KT 300V080 9999 FEW025 SCT100 28/25 Q1011 NOSIG RMK A2985
TAF COR RPLL 201100Z 2012/2118 06008KT 9999 FEW025 SCT100 TX32/2106Z TN25/2021Z 
     TEMPO 2012/2018 04010KT SCT023 BKN100 
     TEMPO 2018/2024 06004KT FEW025 BKN100
       
RPLB 211300Z 02004KT 9999 FEW020 BKN080 28/23 Q1010 NOSIG RMK A2983